createdAt,value
2019-06-26T00:00:03.444Z,55.76
2019-06-26T00:00:40.533Z,55.77
2019-06-26T00:01:17.486Z,55.88
2019-06-26T00:01:53.633Z,55.91
2019-06-26T00:02:30.619Z,55.95
2019-06-26T00:03:07.582Z,55.91
2019-06-26T00:03:43.607Z,55.87
2019-06-26T00:04:20.699Z,55.98
2019-06-26T00:04:57.688Z,56.03
2019-06-26T00:05:34.291Z,55.97
2019-06-26T00:06:10.943Z,56.13
2019-06-26T00:06:48.000Z,56.32
2019-06-26T00:07:24.455Z,56.12
2019-06-26T00:08:01.686Z,56.02
2019-06-26T00:08:38.494Z,55.72
2019-06-26T00:09:14.525Z,55.70
2019-06-26T00:09:52.208Z,55.83
2019-06-26T00:10:29.319Z,56.07
2019-06-26T00:11:05.640Z,56.18
2019-06-26T00:11:42.591Z,56.28
2019-06-26T00:12:19.871Z,56.10
2019-06-26T00:12:56.245Z,55.75
2019-06-26T00:13:32.867Z,55.78
2019-06-26T00:14:09.584Z,55.93
2019-06-26T00:14:46.047Z,56.21
2019-06-26T00:15:22.978Z,56.38
2019-06-26T00:16:00.029Z,56.42
2019-06-26T00:16:36.667Z,56.43
2019-06-26T00:17:14.046Z,56.38
2019-06-26T00:17:50.697Z,56.54
2019-06-26T00:18:26.737Z,56.63
2019-06-26T00:19:03.367Z,56.72
2019-06-26T00:19:40.931Z,56.77
2019-06-26T00:20:17.655Z,56.83
2019-06-26T00:20:54.681Z,56.73
2019-06-26T00:21:31.701Z,56.66
2019-06-26T00:22:07.998Z,56.79
2019-06-26T00:22:44.977Z,56.67
2019-06-26T00:23:21.598Z,56.48
2019-06-26T00:23:58.457Z,56.59
2019-06-26T00:24:35.078Z,56.72
2019-06-26T00:25:11.884Z,56.75
2019-06-26T00:25:48.023Z,57.01
2019-06-26T00:26:25.695Z,57.13
2019-06-26T00:27:03.066Z,56.99
2019-06-26T00:27:39.726Z,56.99
2019-06-26T00:28:17.080Z,56.97
2019-06-26T00:28:53.797Z,57.14
2019-06-26T00:29:29.905Z,57.09
2019-06-26T00:30:08.065Z,56.78
2019-06-26T00:30:44.870Z,56.35
2019-06-26T00:31:20.927Z,56.53
2019-06-26T00:31:57.542Z,56.47
2019-06-26T00:32:34.789Z,56.61
2019-06-26T00:33:10.828Z,56.53
2019-06-26T00:33:47.471Z,56.53
2019-06-26T00:34:24.842Z,56.64
2019-06-26T00:35:00.959Z,56.80
2019-06-26T00:35:37.691Z,56.77
2019-06-26T00:36:14.792Z,56.81
2019-06-26T00:36:50.860Z,56.44
2019-06-26T00:37:27.877Z,56.37
2019-06-26T00:38:04.564Z,56.47
2019-06-26T00:38:40.601Z,56.62
2019-06-26T00:39:17.564Z,56.71
2019-06-26T00:39:54.738Z,56.62
2019-06-26T00:40:31.275Z,56.64
2019-06-26T00:41:07.944Z,56.47
2019-06-26T00:41:45.033Z,56.51
2019-06-26T00:42:21.358Z,56.70
2019-06-26T00:42:58.379Z,56.78
2019-06-26T00:43:42.404Z,56.72
2019-06-26T00:44:13.881Z,56.62
2019-06-26T00:44:50.768Z,56.75
2019-06-26T00:45:27.392Z,56.79
2019-06-26T00:46:03.755Z,56.80
2019-06-26T00:46:40.870Z,56.78
2019-06-26T00:47:17.468Z,56.85
2019-06-26T00:47:53.506Z,56.85
2019-06-26T00:48:30.119Z,56.87
2019-06-26T00:49:06.789Z,56.87
2019-06-26T00:49:42.813Z,56.86
2019-06-26T00:50:19.773Z,56.78
2019-06-26T00:50:56.495Z,56.82
2019-06-26T00:51:32.655Z,56.80
2019-06-26T00:52:09.414Z,56.66
2019-06-26T00:52:46.032Z,56.57
2019-06-26T00:53:22.478Z,56.61
2019-06-26T00:53:59.441Z,56.59
2019-06-26T00:54:36.066Z,56.66
2019-06-26T00:55:12.651Z,56.66
2019-06-26T00:55:49.268Z,56.68
2019-06-26T00:56:26.780Z,56.70
2019-06-26T00:57:03.054Z,56.72
2019-06-26T00:57:39.674Z,56.73
2019-06-26T00:58:16.901Z,56.66
2019-06-26T00:58:53.192Z,56.56
2019-06-26T00:59:30.406Z,56.55
2019-06-26T01:00:10.262Z,56.68
2019-06-26T01:00:50.388Z,56.80
2019-06-26T01:01:27.023Z,56.87
2019-06-26T01:02:04.272Z,56.88
2019-06-26T01:02:40.305Z,56.82
2019-06-26T01:03:17.217Z,56.86
2019-06-26T01:03:55.408Z,56.94
2019-06-26T01:04:35.594Z,57.04
2019-06-26T01:05:12.899Z,57.13
2019-06-26T01:05:49.939Z,57.11
2019-06-26T01:06:44.884Z,57.05
2019-06-26T01:07:21.888Z,56.80
2019-06-26T01:07:58.474Z,56.99
2019-06-26T01:08:35.240Z,56.95
2019-06-26T01:09:11.895Z,57.19
2019-06-26T01:09:48.936Z,57.28
2019-06-26T01:10:25.118Z,57.37
2019-06-26T01:11:02.078Z,57.39
2019-06-26T01:11:39.009Z,57.52
2019-06-26T01:12:15.395Z,57.36
2019-06-26T01:12:52.128Z,57.37
2019-06-26T01:13:29.211Z,57.46
2019-06-26T01:14:05.792Z,57.57
2019-06-26T01:14:42.411Z,57.66
2019-06-26T01:15:19.243Z,57.66
2019-06-26T01:15:55.272Z,57.71
2019-06-26T01:16:32.484Z,57.74
2019-06-26T01:17:09.293Z,57.72
2019-06-26T01:17:45.357Z,57.27
2019-06-26T01:18:22.840Z,57.42
2019-06-26T01:18:59.801Z,57.54
2019-06-26T01:19:37.117Z,57.63
2019-06-26T01:20:14.043Z,57.66
2019-06-26T01:20:50.707Z,57.64
2019-06-26T01:21:27.486Z,57.75
2019-06-26T01:22:04.556Z,57.88
2019-06-26T01:22:41.525Z,57.85
2019-06-26T01:23:17.682Z,57.93
2019-06-26T01:23:54.297Z,57.71
2019-06-26T01:24:31.392Z,57.61
2019-06-26T01:25:07.485Z,57.69
2019-06-26T01:25:44.288Z,57.56
2019-06-26T01:26:21.304Z,57.73
2019-06-26T01:26:57.367Z,57.83
2019-06-26T01:27:34.025Z,57.90
2019-06-26T01:28:11.069Z,58.04
2019-06-26T01:28:47.612Z,58.17
2019-06-26T01:29:24.323Z,58.19
2019-06-26T01:30:01.363Z,58.32
2019-06-26T01:30:37.878Z,58.40
2019-06-26T01:31:14.855Z,58.52
2019-06-26T01:31:51.511Z,58.34
2019-06-26T01:32:28.306Z,58.37
2019-06-26T01:33:05.014Z,58.56
2019-06-26T01:33:41.980Z,58.65
2019-06-26T01:34:18.382Z,58.65
2019-06-26T01:34:55.696Z,58.72
2019-06-26T01:35:33.059Z,58.82
2019-06-26T01:36:09.153Z,58.81
2019-06-26T01:36:45.812Z,58.73
2019-06-26T01:37:23.474Z,58.77
2019-06-26T01:37:59.979Z,58.71
2019-06-26T01:38:36.704Z,58.70
2019-06-26T01:39:13.377Z,58.75
2019-06-26T01:39:49.421Z,58.75
2019-06-26T01:40:26.059Z,58.74
2019-06-26T01:41:03.608Z,58.75
2019-06-26T01:41:40.407Z,58.71
2019-06-26T01:42:17.035Z,58.70
2019-06-26T01:42:53.722Z,58.69
2019-06-26T01:43:30.902Z,58.64
2019-06-26T01:44:14.605Z,58.62
2019-06-26T01:44:46.577Z,58.63
2019-06-26T01:45:23.111Z,58.45
2019-06-26T01:45:59.746Z,58.32
2019-06-26T01:46:36.401Z,58.20
2019-06-26T01:47:12.486Z,58.07
2019-06-26T01:47:49.116Z,58.14
2019-06-26T01:48:26.260Z,58.10
2019-06-26T01:49:02.668Z,58.17
2019-06-26T01:49:39.590Z,58.10
2019-06-26T01:50:16.238Z,58.22
2019-06-26T01:50:52.287Z,58.36
2019-06-26T01:51:29.070Z,58.44
2019-06-26T01:52:05.929Z,58.45
2019-06-26T01:52:41.982Z,58.55
2019-06-26T01:53:19.040Z,58.77
2019-06-26T01:53:56.442Z,58.72
2019-06-26T01:54:32.520Z,58.73
2019-06-26T01:55:09.758Z,58.78
2019-06-26T01:55:46.387Z,58.88
2019-06-26T01:56:22.763Z,58.76
2019-06-26T01:56:59.419Z,58.52
2019-06-26T01:57:36.459Z,58.53
2019-06-26T01:58:12.788Z,58.60
2019-06-26T01:58:49.448Z,58.71
2019-06-26T01:59:26.436Z,58.76
2019-06-26T02:00:02.594Z,58.57
2019-06-26T02:00:39.410Z,58.69
2019-06-26T02:01:16.068Z,58.74
2019-06-26T02:01:52.167Z,58.81
2019-06-26T02:02:28.822Z,58.88
2019-06-26T02:03:05.501Z,58.93
2019-06-26T02:03:41.604Z,58.99
2019-06-26T02:04:18.556Z,58.84
2019-06-26T02:04:55.263Z,58.83
2019-06-26T02:05:31.390Z,58.71
2019-06-26T02:06:08.059Z,58.90
2019-06-26T02:06:45.543Z,59.06
2019-06-26T02:07:21.584Z,59.16
2019-06-26T02:07:58.321Z,59.26
2019-06-26T02:08:34.953Z,59.25
2019-06-26T02:09:11.357Z,59.20
2019-06-26T02:09:47.976Z,59.33
2019-06-26T02:10:24.880Z,59.44
2019-06-26T02:11:00.946Z,59.42
2019-06-26T02:11:38.303Z,59.50
2019-06-26T02:12:15.272Z,59.52
2019-06-26T02:12:51.309Z,59.55
2019-06-26T02:13:27.937Z,59.45
2019-06-26T02:14:05.074Z,59.49
2019-06-26T02:14:41.958Z,59.62
2019-06-26T02:15:18.869Z,59.60
2019-06-26T02:15:55.492Z,59.70
2019-06-26T02:16:31.512Z,59.60
2019-06-26T02:17:08.282Z,59.63
2019-06-26T02:17:45.643Z,59.57
2019-06-26T02:18:47.524Z,59.61
2019-06-26T02:19:24.565Z,59.56
2019-06-26T02:20:02.000Z,59.44
2019-06-26T02:20:38.044Z,59.39
2019-06-26T02:21:15.422Z,59.43
2019-06-26T02:21:52.009Z,59.55
2019-06-26T02:22:28.436Z,59.49
2019-06-26T02:23:05.511Z,59.45
2019-06-26T02:23:42.436Z,59.48
2019-06-26T02:24:18.497Z,59.43
2019-06-26T02:24:55.100Z,59.37
2019-06-26T02:25:32.134Z,59.41
2019-06-26T02:26:08.167Z,59.46
2019-06-26T02:26:45.174Z,59.52
2019-06-26T02:27:22.110Z,59.43
2019-06-26T02:27:58.133Z,59.51
2019-06-26T02:28:34.766Z,59.36
2019-06-26T02:29:11.701Z,59.43
2019-06-26T02:29:47.792Z,59.49
2019-06-26T02:30:24.402Z,59.50
2019-06-26T02:31:01.023Z,59.62
2019-06-26T02:31:37.350Z,59.63
2019-06-26T02:32:13.983Z,59.64
2019-06-26T02:32:50.607Z,59.64
2019-06-26T02:33:26.738Z,59.65
2019-06-26T02:34:03.862Z,59.63
2019-06-26T02:34:40.573Z,59.62
2019-06-26T02:35:17.003Z,59.58
2019-06-26T02:35:53.618Z,59.46
2019-06-26T02:36:30.860Z,59.50
2019-06-26T02:37:07.261Z,59.49
2019-06-26T02:37:43.907Z,59.60
2019-06-26T02:38:20.526Z,59.72
2019-06-26T02:38:56.562Z,59.62
2019-06-26T02:39:33.182Z,59.43
2019-06-26T02:40:11.076Z,59.06
2019-06-26T02:40:47.126Z,59.04
2019-06-26T02:41:24.049Z,59.05
2019-06-26T02:42:00.726Z,59.19
2019-06-26T02:42:36.902Z,59.31
2019-06-26T02:43:14.322Z,59.37
2019-06-26T02:43:51.149Z,59.42
2019-06-26T02:44:27.213Z,59.69
2019-06-26T02:45:04.410Z,59.52
2019-06-26T02:45:41.490Z,59.50
2019-06-26T02:46:17.637Z,59.75
2019-06-26T02:46:54.651Z,59.98
2019-06-26T02:47:31.305Z,59.97
2019-06-26T02:48:07.383Z,60.04
2019-06-26T02:48:44.403Z,60.22
2019-06-26T02:49:21.064Z,60.61
2019-06-26T02:49:57.231Z,60.44
2019-06-26T02:50:33.997Z,60.52
2019-06-26T02:51:10.662Z,60.61
2019-06-26T02:51:47.216Z,60.42
2019-06-26T02:52:23.911Z,60.27
2019-06-26T02:53:00.544Z,60.51
2019-06-26T02:53:36.637Z,60.64
2019-06-26T02:54:13.279Z,60.71
2019-06-26T02:54:50.597Z,60.81
2019-06-26T02:55:27.090Z,60.92
2019-06-26T02:56:03.825Z,61.16
2019-06-26T02:56:40.783Z,61.21
2019-06-26T02:57:17.138Z,61.35
2019-06-26T02:57:53.807Z,61.07
2019-06-26T02:58:30.454Z,60.96
2019-06-26T02:59:07.018Z,60.89
2019-06-26T02:59:43.689Z,61.08
2019-06-26T03:00:20.790Z,61.29
2019-06-26T03:00:57.225Z,61.39
2019-06-26T03:01:34.186Z,61.50
2019-06-26T03:02:10.888Z,61.64
2019-06-26T03:02:46.961Z,61.71
2019-06-26T03:03:23.603Z,61.90
2019-06-26T03:04:00.651Z,61.91
2019-06-26T03:04:37.021Z,62.09
2019-06-26T03:05:13.653Z,62.06
2019-06-26T03:05:50.310Z,61.93
2019-06-26T03:06:26.612Z,61.82
2019-06-26T03:07:03.681Z,62.03
2019-06-26T03:07:40.361Z,62.21
2019-06-26T03:08:16.488Z,62.27
2019-06-26T03:08:53.138Z,62.39
2019-06-26T03:09:29.798Z,62.45
2019-06-26T03:10:07.011Z,62.45
2019-06-26T03:10:43.659Z,62.53
2019-06-26T03:11:20.761Z,62.57
2019-06-26T03:11:56.811Z,62.60
2019-06-26T03:12:33.820Z,62.46
2019-06-26T03:13:10.904Z,62.47
2019-06-26T03:13:47.220Z,62.50
2019-06-26T03:14:23.942Z,62.54
2019-06-26T03:15:08.986Z,62.55
2019-06-26T03:15:38.960Z,62.56
2019-06-26T03:16:15.619Z,62.56
2019-06-26T03:16:53.071Z,62.62
2019-06-26T03:17:29.152Z,62.65
2019-06-26T03:18:06.036Z,62.64
2019-06-26T03:18:42.687Z,62.68
2019-06-26T03:19:19.041Z,62.81
2019-06-26T03:19:55.700Z,62.81
2019-06-26T03:20:35.447Z,62.94
2019-06-26T03:21:12.505Z,62.99
2019-06-26T03:21:49.522Z,63.00
2019-06-26T03:22:26.864Z,63.06
2019-06-26T03:23:02.929Z,63.08
2019-06-26T03:23:39.591Z,63.11
2019-06-26T03:24:16.235Z,63.15
2019-06-26T03:24:52.335Z,63.05
2019-06-26T03:25:29.073Z,62.90
2019-06-26T03:26:06.223Z,62.70
2019-06-26T03:26:42.321Z,62.67
2019-06-26T03:27:19.351Z,62.58
2019-06-26T03:27:56.247Z,62.52
2019-06-26T03:28:33.435Z,62.56
2019-06-26T03:29:10.102Z,62.32
2019-06-26T03:29:46.873Z,62.19
2019-06-26T03:30:23.417Z,62.14
2019-06-26T03:31:00.462Z,62.07
2019-06-26T03:31:37.133Z,62.27
2019-06-26T03:32:13.320Z,62.34
2019-06-26T03:32:49.955Z,62.52
2019-06-26T03:33:26.594Z,62.63
2019-06-26T03:34:02.679Z,62.76
2019-06-26T03:34:39.324Z,62.80
2019-06-26T03:35:16.296Z,62.79
2019-06-26T03:35:52.436Z,62.81
2019-06-26T03:36:29.083Z,62.82
2019-06-26T03:37:05.801Z,62.85
2019-06-26T03:37:42.415Z,62.85
2019-06-26T03:38:19.144Z,62.90
2019-06-26T03:38:55.895Z,62.87
2019-06-26T03:39:32.617Z,62.89
2019-06-26T03:40:10.016Z,62.95
2019-06-26T03:40:46.938Z,62.32
2019-06-26T03:41:23.716Z,62.07
2019-06-26T03:42:00.771Z,62.04
2019-06-26T03:42:37.747Z,62.27
2019-06-26T03:43:13.948Z,62.25
2019-06-26T03:43:50.590Z,62.01
2019-06-26T03:44:27.235Z,61.51
2019-06-26T03:45:03.352Z,61.72
2019-06-26T03:45:40.352Z,61.85
2019-06-26T03:46:16.983Z,61.86
2019-06-26T03:46:53.148Z,62.02
2019-06-26T03:47:30.124Z,62.00
2019-06-26T03:48:06.788Z,62.05
2019-06-26T03:48:43.197Z,62.29
2019-06-26T03:49:20.237Z,62.43
2019-06-26T03:49:56.909Z,62.64
2019-06-26T03:50:32.998Z,62.73
2019-06-26T03:51:13.747Z,62.68
2019-06-26T03:51:48.938Z,62.81
2019-06-26T03:52:25.043Z,62.46
2019-06-26T03:53:02.376Z,62.65
2019-06-26T03:53:39.164Z,62.51
2019-06-26T03:54:15.220Z,61.78
2019-06-26T03:54:52.071Z,62.03
2019-06-26T03:55:28.709Z,62.35
2019-06-26T03:56:05.352Z,62.60
2019-06-26T03:56:42.317Z,62.73
2019-06-26T03:57:19.697Z,62.88
2019-06-26T03:57:56.291Z,62.89
2019-06-26T03:58:33.577Z,62.98
2019-06-26T03:59:10.250Z,62.88
2019-06-26T03:59:46.306Z,62.96
2019-06-26T04:00:31.798Z,62.92
2019-06-26T04:01:08.862Z,63.00
2019-06-26T04:01:44.923Z,62.90
2019-06-26T04:02:22.318Z,62.75
2019-06-26T04:02:59.433Z,62.91
2019-06-26T04:03:35.507Z,62.73
2019-06-26T04:04:12.205Z,62.80
2019-06-26T04:04:49.793Z,62.86
2019-06-26T04:05:25.885Z,62.81
2019-06-26T04:06:02.913Z,62.79
2019-06-26T04:06:39.573Z,62.73
2019-06-26T04:07:15.621Z,62.61
2019-06-26T04:07:53.109Z,62.39
2019-06-26T04:08:29.811Z,62.32
2019-06-26T04:09:07.284Z,62.11
2019-06-26T04:09:44.643Z,62.09
2019-06-26T04:10:21.260Z,61.98
2019-06-26T04:10:57.341Z,61.77
2019-06-26T04:11:33.979Z,61.68
2019-06-26T04:12:10.644Z,61.67
2019-06-26T04:12:47.097Z,61.59
2019-06-26T04:13:23.737Z,61.67
2019-06-26T04:14:00.678Z,61.45
2019-06-26T04:14:37.083Z,61.31
2019-06-26T04:15:14.201Z,61.19
2019-06-26T04:15:51.175Z,61.06
2019-06-26T04:16:27.750Z,61.10
2019-06-26T04:17:04.419Z,61.05
2019-06-26T04:17:41.058Z,60.84
2019-06-26T04:18:17.425Z,60.81
2019-06-26T04:18:54.065Z,60.79
2019-06-26T04:19:30.743Z,60.74
2019-06-26T04:20:07.021Z,60.69
2019-06-26T04:20:43.632Z,60.69
2019-06-26T04:21:20.272Z,60.73
2019-06-26T04:21:56.323Z,60.80
2019-06-26T04:22:33.216Z,60.83
2019-06-26T04:23:09.816Z,60.84
2019-06-26T04:23:46.640Z,60.76
2019-06-26T04:24:23.274Z,60.74
2019-06-26T04:25:00.282Z,60.75
2019-06-26T04:25:38.275Z,60.68
2019-06-26T04:26:14.813Z,60.65
2019-06-26T04:26:51.792Z,60.64
2019-06-26T04:27:28.100Z,60.61
2019-06-26T04:28:06.427Z,60.54
2019-06-26T04:28:44.058Z,60.35
2019-06-26T04:29:20.390Z,59.86
2019-06-26T04:29:57.151Z,59.98
2019-06-26T04:30:33.778Z,60.00
2019-06-26T04:31:09.877Z,59.95
2019-06-26T04:31:46.499Z,59.91
2019-06-26T04:32:23.500Z,59.91
2019-06-26T04:32:59.928Z,60.02
2019-06-26T04:33:36.844Z,60.01
2019-06-26T04:34:13.477Z,60.06
2019-06-26T04:34:49.531Z,59.72
2019-06-26T04:35:26.617Z,59.96
2019-06-26T04:36:03.289Z,60.05
2019-06-26T04:36:39.328Z,60.03
2019-06-26T04:37:15.935Z,60.24
2019-06-26T04:37:52.673Z,60.15
2019-06-26T04:38:29.031Z,59.63
2019-06-26T04:39:07.397Z,59.40
2019-06-26T04:39:44.006Z,59.44
2019-06-26T04:40:20.779Z,59.75
2019-06-26T04:40:58.006Z,59.93
2019-06-26T04:41:34.664Z,59.95
2019-06-26T04:42:10.726Z,59.99
2019-06-26T04:42:47.790Z,59.81
2019-06-26T04:43:24.433Z,59.71
2019-06-26T04:44:00.552Z,59.65
2019-06-26T04:44:37.466Z,59.62
2019-06-26T04:45:15.504Z,59.59
2019-06-26T04:45:58.097Z,59.49
2019-06-26T04:46:29.907Z,59.14
2019-06-26T04:47:06.882Z,58.65
2019-06-26T04:47:42.962Z,58.65
2019-06-26T04:48:20.010Z,58.75
2019-06-26T04:48:56.645Z,58.64
2019-06-26T04:49:33.031Z,58.68
2019-06-26T04:50:11.290Z,58.60
2019-06-26T04:50:48.604Z,58.55
2019-06-26T04:51:24.644Z,58.53
2019-06-26T04:52:01.293Z,58.69
2019-06-26T04:52:38.406Z,58.49
2019-06-26T04:53:14.460Z,58.70
2019-06-26T04:53:51.105Z,58.70
2019-06-26T04:54:27.824Z,58.72
2019-06-26T04:55:04.053Z,58.44
2019-06-26T04:55:41.025Z,58.61
2019-06-26T04:56:17.666Z,58.65
2019-06-26T04:56:53.898Z,58.64
2019-06-26T04:57:30.576Z,58.38
2019-06-26T04:58:07.288Z,57.84
2019-06-26T04:58:43.316Z,57.79
2019-06-26T04:59:19.972Z,57.72
2019-06-26T04:59:56.597Z,57.82
2019-06-26T05:00:32.643Z,57.82
2019-06-26T05:01:10.070Z,57.59
2019-06-26T05:01:46.828Z,57.78
2019-06-26T05:02:22.963Z,58.02
2019-06-26T05:02:59.913Z,58.22
2019-06-26T05:03:36.577Z,58.15
2019-06-26T05:04:12.647Z,58.00
2019-06-26T05:04:49.285Z,57.98
2019-06-26T05:05:38.908Z,58.00
2019-06-26T05:06:03.814Z,57.71
2019-06-26T05:06:40.538Z,57.58
2019-06-26T05:07:17.464Z,57.46
2019-06-26T05:07:53.850Z,57.50
2019-06-26T05:08:30.920Z,57.46
2019-06-26T05:09:08.763Z,57.50
2019-06-26T05:09:45.094Z,57.25
2019-06-26T05:10:22.202Z,57.12
2019-06-26T05:10:58.838Z,57.00
2019-06-26T05:11:35.025Z,56.66
2019-06-26T05:12:11.647Z,56.49
2019-06-26T05:12:48.595Z,56.52
2019-06-26T05:13:25.015Z,56.39
2019-06-26T05:14:01.671Z,56.68
2019-06-26T05:14:38.846Z,56.86
2019-06-26T05:15:15.194Z,56.92
2019-06-26T05:15:52.229Z,56.84
2019-06-26T05:16:29.159Z,56.72
2019-06-26T05:17:05.502Z,56.31
2019-06-26T05:17:42.157Z,56.08
2019-06-26T05:18:18.806Z,55.68
2019-06-26T05:18:55.281Z,55.97
2019-06-26T05:19:32.288Z,56.07
2019-06-26T05:20:10.746Z,55.83
2019-06-26T05:20:47.248Z,55.84
2019-06-26T05:21:24.699Z,55.66
2019-06-26T05:22:01.377Z,55.61
2019-06-26T05:22:37.424Z,55.70
2019-06-26T05:23:14.082Z,55.92
2019-06-26T05:23:51.092Z,56.04
2019-06-26T05:24:28.028Z,55.97
2019-06-26T05:25:04.983Z,55.84
2019-06-26T05:25:42.089Z,55.76
2019-06-26T05:26:18.188Z,55.65
2019-06-26T05:26:54.804Z,55.67
2019-06-26T05:27:31.453Z,55.67
2019-06-26T05:28:08.563Z,55.52
2019-06-26T05:28:45.404Z,55.49
2019-06-26T05:29:22.164Z,55.19
2019-06-26T05:29:58.658Z,55.00
2019-06-26T05:30:36.081Z,55.02
2019-06-26T05:31:12.827Z,54.66
2019-06-26T05:31:49.192Z,54.67
2019-06-26T05:32:25.892Z,54.96
2019-06-26T05:33:03.048Z,54.79
2019-06-26T05:33:39.556Z,54.72
2019-06-26T05:34:16.285Z,54.91
2019-06-26T05:34:53.361Z,55.15
2019-06-26T05:35:29.843Z,55.11
2019-06-26T05:36:06.804Z,55.03
2019-06-26T05:36:43.421Z,55.14
2019-06-26T05:37:19.515Z,55.27
2019-06-26T05:37:56.533Z,55.21
2019-06-26T05:38:33.221Z,54.96
2019-06-26T05:39:09.299Z,55.09
2019-06-26T05:39:45.928Z,55.17
2019-06-26T05:40:22.685Z,55.13
2019-06-26T05:40:58.778Z,55.49
2019-06-26T05:41:35.430Z,55.49
2019-06-26T05:42:12.271Z,55.63
2019-06-26T05:42:48.775Z,55.88
2019-06-26T05:43:25.446Z,55.79
2019-06-26T05:44:02.548Z,55.73
2019-06-26T05:44:38.964Z,55.72
2019-06-26T05:45:16.186Z,55.81
2019-06-26T05:45:52.913Z,55.62
2019-06-26T05:46:31.382Z,55.53
2019-06-26T05:47:08.436Z,55.67
2019-06-26T05:47:45.406Z,55.80
2019-06-26T05:48:21.756Z,56.09
2019-06-26T05:48:58.370Z,56.06
2019-06-26T05:49:35.059Z,56.09
2019-06-26T05:50:11.871Z,56.23
2019-06-26T05:50:48.684Z,56.21
2019-06-26T05:51:25.315Z,56.10
2019-06-26T05:52:02.286Z,55.68
2019-06-26T05:52:42.218Z,55.40
2019-06-26T05:53:17.738Z,55.43
2019-06-26T05:53:53.905Z,55.71
2019-06-26T05:54:30.510Z,55.86
2019-06-26T05:55:07.770Z,56.02
2019-06-26T05:55:43.848Z,56.10
2019-06-26T05:56:20.513Z,55.99
2019-06-26T05:56:57.141Z,55.91
2019-06-26T05:57:33.596Z,55.52
2019-06-26T05:58:10.607Z,55.33
2019-06-26T05:58:47.334Z,55.20
2019-06-26T05:59:23.348Z,54.99
2019-06-26T06:00:00.370Z,54.74
2019-06-26T06:00:37.310Z,54.91
2019-06-26T06:01:13.310Z,54.92
2019-06-26T06:01:49.976Z,54.75
2019-06-26T06:02:26.639Z,54.72
2019-06-26T06:03:03.000Z,54.39
2019-06-26T06:03:39.604Z,54.52
2019-06-26T06:04:16.802Z,54.71
2019-06-26T06:04:53.226Z,54.81
2019-06-26T06:05:30.233Z,54.95
2019-06-26T06:06:07.041Z,55.20
2019-06-26T06:06:43.072Z,55.26
2019-06-26T06:07:20.482Z,54.92
2019-06-26T06:07:57.823Z,54.88
2019-06-26T06:08:33.905Z,55.00
2019-06-26T06:09:10.525Z,55.19
2019-06-26T06:09:47.393Z,55.09
2019-06-26T06:10:23.676Z,55.24
2019-06-26T06:11:00.855Z,55.27
2019-06-26T06:11:37.915Z,55.32
2019-06-26T06:12:14.189Z,55.29
2019-06-26T06:12:50.859Z,55.57
2019-06-26T06:13:27.496Z,55.55
2019-06-26T06:14:03.811Z,55.45
2019-06-26T06:14:40.462Z,55.45
2019-06-26T06:15:17.685Z,55.32
2019-06-26T06:15:54.271Z,55.03
2019-06-26T06:16:45.941Z,54.86
2019-06-26T06:17:09.377Z,54.80
2019-06-26T06:17:45.429Z,54.81
2019-06-26T06:18:22.049Z,54.80
2019-06-26T06:18:58.678Z,54.76
2019-06-26T06:19:34.749Z,54.45
2019-06-26T06:20:12.477Z,54.32
2019-06-26T06:20:49.374Z,54.01
2019-06-26T06:21:25.426Z,53.83
2019-06-26T06:22:02.087Z,53.91
2019-06-26T06:22:38.752Z,53.50
2019-06-26T06:23:14.860Z,53.65
2019-06-26T06:23:51.561Z,53.70
2019-06-26T06:24:28.192Z,53.36
2019-06-26T06:25:04.452Z,53.43
2019-06-26T06:25:41.436Z,53.80
2019-06-26T06:26:18.086Z,53.84
2019-06-26T06:26:54.195Z,54.14
2019-06-26T06:27:30.856Z,54.21
2019-06-26T06:28:07.514Z,54.05
2019-06-26T06:28:43.508Z,53.68
2019-06-26T06:29:20.107Z,53.43
2019-06-26T06:29:56.744Z,53.48
2019-06-26T06:30:32.771Z,52.99
2019-06-26T06:31:09.418Z,53.21
2019-06-26T06:31:46.000Z,53.24
2019-06-26T06:32:22.669Z,52.94
2019-06-26T06:32:59.356Z,52.46
2019-06-26T06:33:35.981Z,52.10
2019-06-26T06:34:12.776Z,51.95
2019-06-26T06:34:49.389Z,52.17
2019-06-26T06:35:26.090Z,51.67
2019-06-26T06:36:02.483Z,51.16
2019-06-26T06:36:39.513Z,51.15
2019-06-26T06:37:16.253Z,51.44
2019-06-26T06:37:53.232Z,51.68
2019-06-26T06:38:29.826Z,51.57
2019-06-26T06:39:08.005Z,51.91
2019-06-26T06:39:44.058Z,52.17
2019-06-26T06:40:20.632Z,51.78
2019-06-26T06:40:57.226Z,51.48
2019-06-26T06:41:33.235Z,51.40
2019-06-26T06:42:09.831Z,51.40
2019-06-26T06:42:46.455Z,51.27
2019-06-26T06:43:22.468Z,51.46
2019-06-26T06:43:59.649Z,51.08
2019-06-26T06:44:36.309Z,50.68
2019-06-26T06:45:12.613Z,50.83
2019-06-26T06:45:50.090Z,51.23
2019-06-26T06:46:27.058Z,51.33
2019-06-26T06:47:04.545Z,51.20
2019-06-26T06:47:42.037Z,51.19
2019-06-26T06:48:18.650Z,51.22
2019-06-26T06:48:54.650Z,51.13
2019-06-26T06:49:31.243Z,51.07
2019-06-26T06:50:08.039Z,50.90
2019-06-26T06:50:44.052Z,50.80
2019-06-26T06:51:20.795Z,50.71
2019-06-26T06:51:57.416Z,50.79
2019-06-26T06:52:33.901Z,50.63
2019-06-26T06:53:11.472Z,50.18
2019-06-26T06:53:48.448Z,50.20
2019-06-26T06:54:25.529Z,50.10
2019-06-26T06:55:02.174Z,50.19
2019-06-26T06:55:38.852Z,50.40
2019-06-26T06:56:15.508Z,50.71
2019-06-26T06:56:52.299Z,50.68
2019-06-26T06:57:29.337Z,50.59
2019-06-26T06:58:05.483Z,50.69
2019-06-26T06:58:42.655Z,50.70
2019-06-26T06:59:19.656Z,50.50
2019-06-26T06:59:55.706Z,50.48
2019-06-26T07:00:33.735Z,50.39
2019-06-26T07:01:10.473Z,50.26
2019-06-26T07:01:46.481Z,49.90
2019-06-26T07:02:23.762Z,49.20
2019-06-26T07:03:00.567Z,49.50
2019-06-26T07:03:36.674Z,49.79
2019-06-26T07:04:13.392Z,49.91
2019-06-26T07:04:50.022Z,49.66
2019-06-26T07:05:26.087Z,49.39
2019-06-26T07:06:02.696Z,49.60
2019-06-26T07:06:39.340Z,49.88
2019-06-26T07:07:15.496Z,49.76
2019-06-26T07:07:52.493Z,49.79
2019-06-26T07:08:29.122Z,49.69
2019-06-26T07:09:06.841Z,49.54
2019-06-26T07:09:43.445Z,49.24
2019-06-26T07:10:20.051Z,49.18
2019-06-26T07:10:56.068Z,49.23
2019-06-26T07:11:33.554Z,48.65
2019-06-26T07:12:10.474Z,48.61
2019-06-26T07:12:46.753Z,48.52
2019-06-26T07:13:23.760Z,48.64
2019-06-26T07:14:00.668Z,48.73
2019-06-26T07:14:36.953Z,48.89
2019-06-26T07:15:16.200Z,48.73
2019-06-26T07:15:52.852Z,48.82
2019-06-26T07:16:28.929Z,48.79
2019-06-26T07:17:19.425Z,48.76
2019-06-26T07:17:43.915Z,48.68
2019-06-26T07:18:20.296Z,48.24
2019-06-26T07:18:56.970Z,48.05
2019-06-26T07:19:33.616Z,47.67
2019-06-26T07:20:11.203Z,47.52
2019-06-26T07:20:47.746Z,47.72
2019-06-26T07:21:24.893Z,48.13
2019-06-26T07:22:00.940Z,48.48
2019-06-26T07:22:37.852Z,48.24
2019-06-26T07:23:14.581Z,48.17
2019-06-26T07:23:51.040Z,48.21
2019-06-26T07:24:28.051Z,48.54
2019-06-26T07:25:05.040Z,48.54
2019-06-26T07:25:41.360Z,48.62
2019-06-26T07:26:17.970Z,48.51
2019-06-26T07:26:54.601Z,48.44
2019-06-26T07:27:30.638Z,48.74
2019-06-26T07:28:07.490Z,48.50
2019-06-26T07:28:44.483Z,48.66
2019-06-26T07:29:20.807Z,48.79
2019-06-26T07:29:57.414Z,48.66
2019-06-26T07:30:34.441Z,48.35
2019-06-26T07:31:10.859Z,48.13
2019-06-26T07:31:47.776Z,48.40
2019-06-26T07:32:25.043Z,48.51
2019-06-26T07:33:01.513Z,48.56
2019-06-26T07:33:38.436Z,48.50
2019-06-26T07:34:15.030Z,48.46
2019-06-26T07:34:51.412Z,48.24
2019-06-26T07:35:28.106Z,48.23
2019-06-26T07:36:04.721Z,47.87
2019-06-26T07:36:41.160Z,47.54
2019-06-26T07:37:17.878Z,47.54
2019-06-26T07:37:54.807Z,47.36
2019-06-26T07:38:31.160Z,47.05
2019-06-26T07:39:08.301Z,46.72
2019-06-26T07:39:44.924Z,46.65
2019-06-26T07:40:21.066Z,46.44
2019-06-26T07:40:57.673Z,46.36
2019-06-26T07:41:34.278Z,46.44
2019-06-26T07:42:10.302Z,46.44
2019-06-26T07:42:47.091Z,46.47
2019-06-26T07:43:24.059Z,46.68
2019-06-26T07:44:00.047Z,46.68
2019-06-26T07:44:36.979Z,46.60
2019-06-26T07:45:13.697Z,46.64
2019-06-26T07:45:49.700Z,46.31
2019-06-26T07:46:26.739Z,46.39
2019-06-26T07:47:03.356Z,46.20
2019-06-26T07:47:43.790Z,46.44
2019-06-26T07:48:18.606Z,46.74
2019-06-26T07:48:57.573Z,46.65
2019-06-26T07:49:33.504Z,46.90
2019-06-26T07:50:10.979Z,46.94
2019-06-26T07:50:47.600Z,46.67
2019-06-26T07:51:23.723Z,46.78
2019-06-26T07:52:00.420Z,47.05
2019-06-26T07:52:37.054Z,47.01
2019-06-26T07:53:13.203Z,47.20
2019-06-26T07:53:49.783Z,47.53